createdAt,value
2022-11-17T00:00:23.623Z,1001.3
2022-11-17T00:15:23.702Z,1001.0
2022-11-17T00:30:23.605Z,1001.0
2022-11-17T00:45:23.670Z,1001.0
2022-11-17T01:00:26.685Z,1001.0
2022-11-17T01:15:23.719Z,1000.0
2022-11-17T01:30:23.758Z,1000.0
2022-11-17T01:45:23.738Z,1000.0
2022-11-17T02:00:26.909Z,1000.0
2022-11-17T02:15:23.630Z,999.3
2022-11-17T02:30:23.625Z,999.0
2022-11-17T02:45:23.687Z,998.5
2022-11-17T03:00:23.876Z,998.3
2022-11-17T03:15:23.777Z,999.0
2022-11-17T03:30:24.079Z,999.0
2022-11-17T03:45:23.942Z,999.0
2022-11-17T04:00:30.777Z,999.0
2022-11-17T04:15:23.835Z,998.0
2022-11-17T04:30:23.930Z,998.0
2022-11-17T04:45:23.933Z,998.0
2022-11-17T05:00:32.356Z,998.0
2022-11-17T05:15:23.970Z,998.0
2022-11-17T05:30:27.222Z,998.0
2022-11-17T05:45:24.695Z,998.0
2022-11-17T06:00:35.702Z,998.0
2022-11-17T06:15:24.488Z,998.0
2022-11-17T06:30:24.126Z,998.0
2022-11-17T06:45:24.090Z,998.0
2022-11-17T07:00:41.355Z,998.3
2022-11-17T07:15:24.220Z,999.0
2022-11-17T07:30:24.375Z,999.0
2022-11-17T07:45:28.687Z,998.7
2022-11-17T08:00:32.200Z,998.7
2022-11-17T08:15:24.154Z,999.0
2022-11-17T08:30:33.225Z,999.0
2022-11-17T08:45:33.190Z,999.0
2022-11-17T09:00:36.566Z,999.0
2022-11-17T09:15:23.250Z,999.0
2022-11-17T09:30:23.479Z,999.7
2022-11-17T09:45:23.449Z,1000.0
2022-11-17T10:00:28.053Z,1000.0
2022-11-17T10:15:23.902Z,1000.0
2022-11-17T10:30:23.404Z,1000.0
2022-11-17T10:45:23.724Z,1000.0
2022-11-17T11:00:32.412Z,1000.0
2022-11-17T11:15:23.425Z,1000.0
2022-11-17T11:30:27.353Z,1000.0
2022-11-17T11:45:23.902Z,999.3
2022-11-17T12:00:40.161Z,999.7
2022-11-17T12:15:23.720Z,999.0
2022-11-17T12:30:23.783Z,999.3
2022-11-17T12:45:23.569Z,999.0
2022-11-17T13:00:35.148Z,999.0
2022-11-17T13:15:23.634Z,999.0
2022-11-17T13:30:24.630Z,999.0
2022-11-17T13:45:23.484Z,999.0
2022-11-17T14:00:33.637Z,999.0
2022-11-17T14:15:23.632Z,999.0
2022-11-17T14:30:24.911Z,999.0
2022-11-17T14:45:23.553Z,999.0
2022-11-17T15:00:29.023Z,999.0
2022-11-17T15:15:23.778Z,999.0
2022-11-17T15:30:25.708Z,999.0
2022-11-17T15:45:23.882Z,999.0
2022-11-17T16:00:33.638Z,999.0
2022-11-17T16:15:23.839Z,999.0
2022-11-17T16:30:24.033Z,999.0
2022-11-17T16:45:23.719Z,999.0
2022-11-17T17:00:26.363Z,999.0
2022-11-17T17:15:24.110Z,999.0
2022-11-17T17:30:24.015Z,999.0
2022-11-17T17:45:23.927Z,999.0
2022-11-17T18:00:28.049Z,999.0
2022-11-17T18:15:23.903Z,999.0
2022-11-17T18:30:29.437Z,999.3
2022-11-17T18:45:24.005Z,1000.0
2022-11-17T19:00:30.856Z,1000.0
2022-11-17T19:15:23.954Z,1000.0
2022-11-17T19:30:24.083Z,1001.0
2022-11-17T19:45:24.346Z,1001.0
2022-11-17T20:00:24.946Z,1001.0
2022-11-17T20:15:34.351Z,1001.0
2022-11-17T20:30:34.970Z,1001.0
2022-11-17T20:45:33.125Z,1001.0
2022-11-17T21:00:36.490Z,1001.0
2022-11-17T21:15:23.262Z,1001.0
2022-11-17T21:30:25.533Z,1001.0
2022-11-17T21:45:23.697Z,1001.7
2022-11-17T22:00:39.300Z,1002.0
2022-11-17T22:15:23.517Z,1002.0
2022-11-17T22:30:23.636Z,1002.0
2022-11-17T22:45:23.651Z,1001.7
2022-11-17T23:15:23.580Z,1001.0
2022-11-17T23:30:23.781Z,1001.0
2022-11-17T23:45:23.529Z,1001.0
